Airfield :
LOGIN :

Register | Disclaimer

   EN    FR    IT 

 










Legend :    VFR   Marginal VFR   IFR   Intensive IFR   Very Intensive IFR
Visi :
Ceiling :
>= 8 km
>= 3000ft
5 to 8 km
1000 to 3000 ft
1500m to 5 km
500 to 1000 ft
800 to 1500m
200 to 500 ft
< 800m
< 200 ft
Symbols :   Thunderstorms  Fog  Heavy snow  Heavy precipitations  Wind > 20 kt
SIGMETs :     Misc.  Thunderstorms  Icing  Turbulence  Mountain Waves  Volcanic Ashes







- Airport Elevation : 0 ft


ETEB - Ansbach Army Heliport

CURRENT METAR :
  • 250856Z AUTO 30005KT 9999 BKN049 15/09 A3020 RMK AO2 SLP235 T01520091 52008 $

EXPIRED METARs :
  • 250756Z AUTO 30006KT 9999 FEW018 OVC046 15/10 A3019 RMK AO2 SLP230 T01460098 $
  • 250741Z AUTO 33006KT 9999 SCT018 OVC044 14/10 A3019 RMK AO2 SLP230 $
  • 250726Z AUTO 34007KT 9999 BKN019 BKN045 15/10 A3019 RMK AO2 CIG 019V045 BKN019 V SCT SLP230 $
  • 250656Z AUTO 36005KT 9999 FEW020 SCT032 SCT040 14/10 A3019 RMK AO2 SLP230 T01350095 $

Expired Forecast.
No reported NOTAMs for that airfield.



MET'MAP, your aeronautical weather chart ! - Copyright ORBIFLY December 2007 - Disclaimer

ORBIFLY MET'MAP TEAM :

Programming & Development : Alexandra Zaïnal
Concept & Development : Baudouin d'Aumeries
Co-Development & Prog : Marc-Olivier Méhu
Technical & hardware support : Manuel Goepfert

Contact : metmap@orbifly.com




SOURCES & CREDITS :

   NOAA